Kezdőlap
METAR-TAF:

METAR-TAF

Repülőterek :

Agadir, Marokkó

földrajzi szélesség: 30-20N, földrajzi hosszúság: 009-24W, magasság: 74 m

Jelenlegi meteorológiai megfigyelések

A jelentés 16 perccel ezelõtt készült, 23:00 UTC
Kelet-délkeleti szél 3 kt
Hőmérséklet 18°C
Páratartalom 100%
Légköri nyomás 1015 hPa
Látótávolság 10 km, vagy több
felhőtlen 1500 m magasságban, és nincs gomolyfelhõ

METAR: GMAD 172300Z 11003KT CAVOK 18/18 Q1015 NOSIG

Idő: 00:16 (23:16 UTC)

Előrejelzés

A jelentés 6 órával és 16 perccel ezelõtt készült, 17:00 UTC
Az előrejelzés 17-én 18 óra UTC és 18-én 24 óra UTC között érvényes
Dél-délnyugati szél 6 kt
Látótávolság: 8000 m
18-én 02 óra UTC és 18-én 10 óra UTC között ideiglenes
Szakadozott felhőzet 1300 lábon
18-én 12 óra UTC és 18-én 14 óra UTC között fokozatosan kialakuló
Nyugati szél 13 kt

TAF: GMAD 171700Z 1718/1824 20006KT 8000 NSC TEMPO 1802/1810 BKN013 BECMG 1812/1814 28013KT

Meteorológiai megfigyelések és előrejelzések több, mint 4000 repülőtéren (METAR és TAF jelentéseket).

A térképen piros és sárga pontok jelzik az elérhető meteorológiai állomásokat.

Mozgassa az egeret a pont fölött, hogy megjelenjen az állomás neve.

Azután kattintson az időjárási megfigyelések és előrejelzések megtekintéséhez.

A térkép megváltoztatása: kattintson a fekete keresztel jelölt zöld gombra ráközelítéshez, a vonallal jelölt zöld gombra távolításhoz, vagy a zöld nyilakra a szomszédos térképek eléréséhez.


METAR-TAF: